Terminal Aerodrome Forecast
Issued by NWS

Home | Current Version | Previous Version | Graphics & Text | Print | Product List | Glossary On
Versions: 1 2 3 4 5 6 7 8 9 10 11 12 13 14 15 16 17 18 19
000
FTUS43 KTOP 282300
TAFMHK
TAF
KMHK 282331Z 2900/2924 20007KT P6SM VCTS BKN080CB BKN150
     FM290200 18006KT P6SM VCTS BKN050CB
      TEMPO 2904/2908 3SM -TSRA SCT015 OVC040CB
     FM291400 22010KT P6SM VCTS SCT035CB BKN110=

USA.gov is the U.S. government's official web portal to all federal, state and local government web resources and services.